KMSP/MSP METAR and TAF weather

Enter ICAO airport designator
Station Type Date Time Source
KMSP METAR 2021/03/05 06:53 UTC NOAA

KMSP 050653Z 00000KT 10SM OVC085 02/M04 A3034 RMK AO2 SLP282 T00221039


Station Type Date Time Source
KMSP Decoded METAR 2021/03/05 06:53 UTC NOAA

MINNEAPOLIS-ST PAUL INTERNATIONAL , MN, United States (KMSP) 44-52N 93-13W 265M
Mar 05, 2021 - 01:53 AM EST / 2021.03.05 0653 UTC
Wind: Calm:0
Visibility: 10 mile(s):0
Sky conditions: overcast
Temperature: 36.0 F (2.2 C)
Dew Point: 25.0 F (-3.9 C)
Relative Humidity: 63%
Pressure (altimeter): 30.34 in. Hg (1027 hPa)
ob: KMSP 050653Z 00000KT 10SM OVC085 02/M04 A3034 RMK AO2 SLP282 T00221039
cycle: 7

Station Type Date Time Source
KMSP TAF 2021/03/05 06:22 UTC NOAA

TAF KMSP 050520Z 0506/0612 11004KT P6SM BKN090
FM051000 11003KT P6SM SKC

Example: see airport list